Station History

Weather Underground - logo

Station Historical Data
Daily Summary for January 27, 2018 Units:  Metric    English   Both
« Previous Day
Next Day »
Daily Weekly Monthly Yearly Custom
  High: Low: Average:
Temperature: 14.3 °C 0.7 °C 5.7 °C
Dew Point: 7.8 °C -0.3 °C 3.1 °C
Humidity: 95 % 62 % 84 %
Wind Speed: 9.3 km/h 0 km/h 1.6 km/h
Wind Gust: 9.3 km/h - -
Wind:- - South
Pressure: 1032.4 hPa 1029 hPa -
Precipitation: 0 mm    
Historical Graphs
 
 
Tabular Data for January 27, 2018
Time Temperature Dew Point Pressure Wind Wind Speed Wind Gust Humidity Rainfall Rate (Hourly)
00:00 3.9 °C 2.4 °C 1029 hPa Calm     90 % 0 mm
00:05 3.9 °C 2.6 °C 1029 hPa Calm     91 % 0 mm
00:10 3.9 °C 2.6 °C 1029 hPa Calm     91 % 0 mm
00:15 3.6 °C 2.1 °C 1029 hPa Calm     90 % 0 mm
00:20 3.5 °C 2 °C 1029 hPa Calm   0.6 km/h 90 % 0 mm
00:25 3.4 °C 1.9 °C 1029 hPa Calm   0.2 km/h 90 % 0 mm
00:30 3.2 °C 1.7 °C 1029 hPa Calm     90 % 0 mm
00:36 3.2 °C 1.9 °C 1029 hPa Calm     91 % 0 mm
00:41 3.2 °C 1.9 °C 1029 hPa Calm     91 % 0 mm
00:46 3.2 °C 1.8 °C 1029 hPa Calm     91 % 0 mm
00:51 3.3 °C 2.2 °C 1029 hPa Calm     92 % 0 mm
00:56 3.3 °C 2.1 °C 1029 hPa Calm     92 % 0 mm
01:01 3.3 °C 2.1 °C 1029 hPa Calm     92 % 0 mm
01:06 3.4 °C 2.4 °C 1029 hPa Calm     93 % 0 mm
01:11 3.4 °C 2.2 °C 1029 hPa Calm     92 % 0 mm
01:16 3.1 °C 1.7 °C 1029 hPa Calm     91 % 0 mm
01:21 2.6 °C 1.1 °C 1029 hPa Calm     90 % 0 mm
01:26 2.4 °C 1.1 °C 1029 hPa Calm     91 % 0 mm
01:31 2.3 °C 0.9 °C 1029 hPa Calm     91 % 0 mm
01:36 2.3 °C 1.1 °C 1029 hPa Calm     92 % 0 mm
01:41 2.2 °C 1.1 °C 1029 hPa Calm     92 % 0 mm
01:46 2.2 °C 1 °C 1029 hPa Calm     92 % 0 mm
01:51 2.2 °C 1.1 °C 1029 hPa Calm     92 % 0 mm
01:56 2.2 °C 1.1 °C 1029 hPa Calm     92 % 0 mm
02:01 2.3 °C 1.3 °C 1029 hPa Calm     93 % 0 mm
02:06 2.3 °C 1.3 °C 1029 hPa Calm     93 % 0 mm
02:11 2.2 °C 1.2 °C 1029 hPa Calm     93 % 0 mm
02:16 2.2 °C 1.2 °C 1029 hPa Calm     93 % 0 mm
02:21 2.1 °C 1.1 °C 1029 hPa Calm     93 % 0 mm
02:26 2.1 °C 1.1 °C 1029 hPa Calm     93 % 0 mm
02:31 2.1 °C 1.1 °C 1029 hPa Calm     93 % 0 mm
02:36 2.1 °C 1.1 °C 1029 hPa Calm     93 % 0 mm
02:41 2.3 °C 1.4 °C 1029 hPa Calm     94 % 0 mm
02:46 2.3 °C 1.4 °C 1029 hPa Calm     94 % 0 mm
02:51 2.1 °C 1.1 °C 1029 hPa Calm     93 % 0 mm
02:56 2 °C 1 °C 1029.3 hPa Calm     93 % 0 mm
03:01 2.1 °C 1.1 °C 1029.3 hPa Calm     93 % 0 mm
03:06 2 °C 1 °C 1029.3 hPa Calm     93 % 0 mm
03:11 1.8 °C 0.8 °C 1029.3 hPa Calm     93 % 0 mm
03:16 1.9 °C 0.9 °C 1029.3 hPa Calm     93 % 0 mm
03:21 2 °C 1 °C 1029.3 hPa Calm     93 % 0 mm
03:26 2.1 °C 1.2 °C 1029.3 hPa Calm     94 % 0 mm
03:31 2.1 °C 1.1 °C 1029.3 hPa Calm     93 % 0 mm
03:36 2.1 °C 1.1 °C 1029.3 hPa Calm     93 % 0 mm
03:41 2 °C 1 °C 1029.3 hPa Calm     93 % 0 mm
03:46 1.9 °C 0.9 °C 1029.3 hPa Calm     93 % 0 mm
03:51 1.9 °C 0.9 °C 1029.3 hPa Calm     93 % 0 mm
03:56 2.1 °C 1.2 °C 1029.3 hPa Calm     94 % 0 mm
04:01 2.1 °C 1.1 °C 1029.3 hPa Calm     93 % 0 mm
04:06 2 °C 1 °C 1029.3 hPa Calm     93 % 0 mm
04:11 1.9 °C 0.9 °C 1029.3 hPa Calm     93 % 0 mm
04:17 1.9 °C 0.9 °C 1029.3 hPa Calm     93 % 0 mm
04:21 1.9 °C 0.9 °C 1029.3 hPa Calm     93 % 0 mm
04:26 1.9 °C 0.9 °C 1029.3 hPa Calm     93 % 0 mm
04:32 1.7 °C 0.5 °C 1029.3 hPa Calm     92 % 0 mm
04:37 1.6 °C 0.6 °C 1029.3 hPa Calm     93 % 0 mm
04:42 1.6 °C 0.6 °C 1029.3 hPa Calm     93 % 0 mm
04:47 1.6 °C 0.6 °C 1029.3 hPa Calm     93 % 0 mm
04:52 1.7 °C 0.7 °C 1029.3 hPa Calm     93 % 0 mm
04:57 1.5 °C 0.5 °C 1029.3 hPa Calm     93 % 0 mm
05:02 1.3 °C 0.1 °C 1029.3 hPa Calm     92 % 0 mm
05:07 1.2 °C 0.2 °C 1029.3 hPa Calm     93 % 0 mm
05:12 1.1 °C 0.1 °C 1029.3 hPa Calm     93 % 0 mm
05:17 1 °C 0 °C 1029.3 hPa Calm     93 % 0 mm
05:22 0.9 °C -0.1 °C 1029.7 hPa Calm     93 % 0 mm
05:27 0.9 °C -0.1 °C 1029.3 hPa Calm     93 % 0 mm
05:32 0.8 °C -0.2 °C 1029.3 hPa Calm     93 % 0 mm
05:37 0.8 °C -0.2 °C 1029.3 hPa Calm     93 % 0 mm
05:42 0.7 °C -0.3 °C 1029.3 hPa Calm     93 % 0 mm
05:47 0.8 °C -0.2 °C 1029.3 hPa Calm     93 % 0 mm
05:52 0.8 °C -0.2 °C 1029.3 hPa Calm     93 % 0 mm
05:57 0.8 °C 0 °C 1029.7 hPa Calm     94 % 0 mm
06:02 0.9 °C 0.1 °C 1029.7 hPa Calm     94 % 0 mm
06:07 0.9 °C 0.1 °C 1029.7 hPa Calm     94 % 0 mm
06:12 0.9 °C 0.1 °C 1030 hPa Calm     94 % 0 mm
06:17 0.9 °C 0.1 °C 1030 hPa Calm     94 % 0 mm
06:22 0.8 °C 0 °C 1030.4 hPa Calm     94 % 0 mm
06:27 0.8 °C 0 °C 1030.4 hPa Calm     94 % 0 mm
06:32 0.9 °C 0.1 °C 1030.4 hPa Calm     94 % 0 mm
06:37 0.9 °C 0.1 °C 1030.7 hPa Calm     94 % 0 mm
06:42 0.8 °C 0 °C 1030.7 hPa Calm     94 % 0 mm
06:47 0.7 °C -0.1 °C 1030.7 hPa Calm     94 % 0 mm
06:52 0.7 °C -0.1 °C 1030.7 hPa Calm     94 % 0 mm
06:57 0.7 °C -0.2 °C 1030.7 hPa Calm     94 % 0 mm
07:02 0.7 °C -0.2 °C 1031 hPa Calm     94 % 0 mm
07:07 0.7 °C -0.2 °C 1031 hPa Calm     94 % 0 mm
07:12 0.7 °C -0.2 °C 1031 hPa Calm     94 % 0 mm
07:17 0.7 °C -0.2 °C 1031.4 hPa Calm     94 % 0 mm
07:22 0.8 °C -0.1 °C 1031.4 hPa Calm     94 % 0 mm
07:27 0.9 °C 0.1 °C 1031.4 hPa Calm     94 % 0 mm
07:32 1.1 °C 0.4 °C 1031.4 hPa Calm     95 % 0 mm
07:37 1.4 °C 0.7 °C 1031.4 hPa Calm     95 % 0 mm
07:42 1.7 °C 0.9 °C 1031.4 hPa Calm     95 % 0 mm
07:47 1.9 °C 1.2 °C 1031.4 hPa Calm     95 % 0 mm
07:52 2.2 °C 1.4 °C 1031.4 hPa Calm     95 % 0 mm
07:57 2.7 °C 1.9 °C 1031.4 hPa Calm     95 % 0 mm
08:02 3.5 °C 2.8 °C 1031.4 hPa Calm   0.2 km/h 95 % 0 mm
08:07 4.2 °C 3.4 °C 1031.4 hPa ESE 1.9 km/h   95 % 0 mm
08:12 4.6 °C 3.4 °C 1031.4 hPa Calm     92 % 0 mm
08:17 5 °C 3.7 °C 1031.4 hPa SSE 1.9 km/h 1.9 km/h 91 % 0 mm
08:22 5.2 °C 3.7 °C 1031.4 hPa SE 1.9 km/h 1.9 km/h 90 % 0 mm
08:27 5.3 °C 3.8 °C 1031.4 hPa East 1.9 km/h 1.9 km/h 90 % 0 mm
08:32 5.4 °C 3.9 °C 1031.4 hPa ESE 3.7 km/h 3.7 km/h 90 % 0 mm
08:37 5.6 °C 4.1 °C 1031.4 hPa Calm     90 % 0 mm
08:42 5.9 °C 4.2 °C 1031.7 hPa East 1.9 km/h 1.9 km/h 89 % 0 mm
08:47 6.3 °C 4.4 °C 1031.7 hPa SE 1.9 km/h 1.9 km/h 88 % 0 mm
08:52 6.7 °C 4.7 °C 1031.7 hPa SSW 5.6 km/h 5.6 km/h 87 % 0 mm
08:57 6.9 °C 4.6 °C 1031.7 hPa SSE 3.7 km/h 3.7 km/h 85 % 0 mm
09:02 7.1 °C 4.7 °C 1031.7 hPa NE 1.9 km/h 1.9 km/h 85 % 0 mm
09:07 7.3 °C 4.9 °C 1031.7 hPa Calm     85 % 0 mm
09:12 7.6 °C 4.8 °C 1031.7 hPa SSE 3.7 km/h 3.7 km/h 83 % 0 mm
09:17 7.8 °C 4.9 °C 1031.7 hPa ENE 3.7 km/h 3.7 km/h 82 % 0 mm
09:22 8.1 °C 5 °C 1031.7 hPa East 3.7 km/h 3.7 km/h 81 % 0 mm
09:27 8.3 °C 5.1 °C 1032.1 hPa ESE 5.6 km/h 5.6 km/h 80 % 0 mm
09:32 8.4 °C 5.1 °C 1032.1 hPa SSE 3.7 km/h 3.7 km/h 80 % 0 mm
09:37 8.7 °C 5.4 °C 1032.1 hPa SE 5.6 km/h 5.6 km/h 80 % 0 mm
09:42 9.1 °C 5.6 °C 1032.1 hPa South 5.6 km/h 5.6 km/h 79 % 0 mm
09:47 9.4 °C 5.6 °C 1032.1 hPa SSE 3.7 km/h 3.7 km/h 77 % 0 mm
09:52 9.7 °C 5.8 °C 1032.1 hPa South 5.6 km/h 5.6 km/h 77 % 0 mm
09:57 9.9 °C 6.1 °C 1032.1 hPa Calm   0.3 km/h 77 % 0 mm
10:02 10.2 °C 5.9 °C 1032.4 hPa SSE 9.3 km/h 9.3 km/h 75 % 0 mm
10:07 10.4 °C 6 °C 1032.4 hPa SSW 3.7 km/h 3.7 km/h 74 % 0 mm
10:12 10.6 °C 5.9 °C 1032.4 hPa South 5.6 km/h 5.6 km/h 73 % 0 mm
10:17 10.8 °C 6.1 °C 1032.4 hPa SSE 5.6 km/h 5.6 km/h 73 % 0 mm
10:22 10.8 °C 6.1 °C 1032.4 hPa SSW 5.6 km/h   73 % 0 mm
10:27 11 °C 6.3 °C 1032.4 hPa SSW 3.2 km/h 3.2 km/h 73 % 0 mm
10:32 11.2 °C 6.3 °C 1032.4 hPa South 5.6 km/h 5.6 km/h 72 % 0 mm
10:37 11.2 °C 6.3 °C 1032.1 hPa ESE 5.6 km/h 5.6 km/h 72 % 0 mm
10:42 11.4 °C 6.3 °C 1032.1 hPa South 5.6 km/h 5.6 km/h 71 % 0 mm
10:47 11.6 °C 6.3 °C 1032.1 hPa SW 5.6 km/h 5.6 km/h 70 % 0 mm
10:52 11.8 °C 6.3 °C 1032.1 hPa East 5.6 km/h 5.6 km/h 69 % 0 mm
10:57 11.9 °C 6.4 °C 1031.7 hPa SE 5.6 km/h 5.6 km/h 69 % 0 mm
11:02 12 °C 6.3 °C 1031.7 hPa SSE 5.6 km/h 5.6 km/h 68 % 0 mm
11:07 12 °C 6.3 °C 1031.7 hPa SSE 3.7 km/h 3.7 km/h 68 % 0 mm
11:12 12.2 °C 6.5 °C 1031.7 hPa NE 5.6 km/h 5.6 km/h 68 % 0 mm
11:17 12.4 °C 6.3 °C 1031.7 hPa SSE 5.6 km/h 5.6 km/h 66 % 0 mm
11:22 12.7 °C 6.5 °C 1031.4 hPa SSE 7.4 km/h 7.4 km/h 66 % 0 mm
11:27 12.9 °C 6.3 °C 1031.4 hPa South 5.6 km/h 5.6 km/h 64 % 0 mm
11:32 13.1 °C 6.4 °C 1031 hPa East 3.7 km/h 3.7 km/h 64 % 0 mm
11:37 13.2 °C 6.6 °C 1031.4 hPa ESE 5.6 km/h 5.6 km/h 64 % 0 mm
11:42 13.3 °C 6.9 °C 1031 hPa SE 5.6 km/h 5.6 km/h 65 % 0 mm
11:47 13.5 °C 6.6 °C 1031 hPa East 3.7 km/h 3.7 km/h 63 % 0 mm
11:52 13.6 °C 6.9 °C 1031 hPa SE 5.6 km/h 5.6 km/h 64 % 0 mm
11:57 13.7 °C 7.1 °C 1031 hPa SSW 3.7 km/h 3.7 km/h 64 % 0 mm
12:02 13.8 °C 6.8 °C 1030.7 hPa SSE 3.7 km/h 3.7 km/h 63 % 0 mm
12:07 13.6 °C 7.1 °C 1030.7 hPa South 3.2 km/h 3.2 km/h 65 % 0 mm
12:12 13.6 °C 6.7 °C 1030.7 hPa NNW 1.9 km/h 1.9 km/h 63 % 0 mm
12:17 13.7 °C 7.1 °C 1030.7 hPa NNW 5.6 km/h 5.6 km/h 64 % 0 mm
12:23 13.9 °C 6.7 °C 1030.7 hPa WNW 5.6 km/h 5.6 km/h 62 % 0 mm
12:28 13.9 °C 6.9 °C 1030.7 hPa SSE 3.7 km/h 3.7 km/h 63 % 0 mm
12:33 13.9 °C 7.2 °C 1030.4 hPa SSW 3.7 km/h 3.7 km/h 64 % 0 mm
12:38 14 °C 7.1 °C 1030.4 hPa NNW 5.6 km/h 5.6 km/h 63 % 0 mm
12:43 13.9 °C 7.2 °C 1030.4 hPa NW 1.9 km/h 1.9 km/h 64 % 0 mm
12:48 14.2 °C 7 °C 1030 hPa WNW 1.9 km/h 1.9 km/h 62 % 0 mm
12:53 14.1 °C 7.2 °C 1030 hPa SE 1.9 km/h 1.9 km/h 63 % 0 mm
12:58 14.3 °C 7.6 °C 1030 hPa South 3.7 km/h 3.7 km/h 64 % 0 mm
13:03 14.3 °C 7.8 °C 1030 hPa NW 3.7 km/h 3.7 km/h 65 % 0 mm
13:08 14.1 °C 7.3 °C 1030 hPa SSE 1.9 km/h 1.9 km/h 64 % 0 mm
13:13 14 °C 7.3 °C 1029.7 hPa West 5.6 km/h 5.6 km/h 64 % 0 mm
13:14 14 °C 7.3 °C 1030 hPa WSW 3.7 km/h 3.7 km/h 64 % 0 mm
13:18 14 °C 7.3 °C 1030 hPa WSW 3.7 km/h 3.7 km/h 64 % 0 mm
13:23 14 °C 7.3 °C 1030 hPa WSW 3.7 km/h 3.7 km/h 64 % 0 mm
14:11 14 °C 7.3 °C 1030 hPa WSW 3.7 km/h 3.7 km/h 64 % 0 mm
19:09 14 °C 7.3 °C 1030 hPa WSW 3.7 km/h 3.7 km/h 64 % 0 mm
23:11 14 °C 7.3 °C 1030 hPa WSW 3.7 km/h 3.7 km/h 64 % 0 mm
23:19 14 °C 7.3 °C 1030 hPa WSW 3.7 km/h 3.7 km/h 64 % 0 mm
Park Place, Exeter, Tulare County, California, USA
Compliments of Weather Underground - 2 mb